sensor_id;sensor_type;location;lat;lon;timestamp;temperature;humidity
14401;DHT22;7285;50.894;5.462;2024-03-17T00:00:26;5.70;99.90
14401;DHT22;7285;50.894;5.462;2024-03-17T00:02:52;5.70;99.90
14401;DHT22;7285;50.894;5.462;2024-03-17T00:05:19;5.70;99.90
14401;DHT22;7285;50.894;5.462;2024-03-17T00:07:46;5.70;99.90
14401;DHT22;7285;50.894;5.462;2024-03-17T00:10:13;5.70;99.90
14401;DHT22;7285;50.894;5.462;2024-03-17T00:12:41;5.70;99.90
14401;DHT22;7285;50.894;5.462;2024-03-17T00:15:08;5.80;99.90
14401;DHT22;7285;50.894;5.462;2024-03-17T00:17:34;5.70;99.90
14401;DHT22;7285;50.894;5.462;2024-03-17T00:20:02;5.80;99.90
14401;DHT22;7285;50.894;5.462;2024-03-17T00:22:34;5.80;99.90
14401;DHT22;7285;50.894;5.462;2024-03-17T00:25:07;5.80;99.90
14401;DHT22;7285;50.894;5.462;2024-03-17T00:27:34;5.80;99.90
14401;DHT22;7285;50.894;5.462;2024-03-17T00:30:06;5.90;99.90
14401;DHT22;7285;50.894;5.462;2024-03-17T00:32:36;5.90;99.90
14401;DHT22;7285;50.894;5.462;2024-03-17T00:35:03;5.90;99.90
14401;DHT22;7285;50.894;5.462;2024-03-17T00:37:30;5.90;99.90
14401;DHT22;7285;50.894;5.462;2024-03-17T00:40:01;5.90;99.90
14401;DHT22;7285;50.894;5.462;2024-03-17T00:42:29;5.80;99.90
14401;DHT22;7285;50.894;5.462;2024-03-17T00:44:56;5.80;99.90
14401;DHT22;7285;50.894;5.462;2024-03-17T00:47:22;5.80;99.90
14401;DHT22;7285;50.894;5.462;2024-03-17T00:49:49;5.70;99.90
14401;DHT22;7285;50.894;5.462;2024-03-17T00:52:15;5.70;99.90
14401;DHT22;7285;50.894;5.462;2024-03-17T00:54:43;5.60;99.90
14401;DHT22;7285;50.894;5.462;2024-03-17T00:57:09;5.50;99.90
14401;DHT22;7285;50.894;5.462;2024-03-17T00:59:37;5.60;99.90
14401;DHT22;7285;50.894;5.462;2024-03-17T01:02:04;5.50;99.90
14401;DHT22;7285;50.894;5.462;2024-03-17T01:04:31;5.40;99.90
14401;DHT22;7285;50.894;5.462;2024-03-17T01:06:59;5.30;99.90
14401;DHT22;7285;50.894;5.462;2024-03-17T01:09:26;5.30;99.90
14401;DHT22;7285;50.894;5.462;2024-03-17T01:11:52;5.20;99.90
14401;DHT22;7285;50.894;5.462;2024-03-17T01:14:19;5.20;99.90
14401;DHT22;7285;50.894;5.462;2024-03-17T01:16:46;5.10;99.90
14401;DHT22;7285;50.894;5.462;2024-03-17T01:19:16;5.00;99.90
14401;DHT22;7285;50.894;5.462;2024-03-17T01:21:42;5.00;99.90
14401;DHT22;7285;50.894;5.462;2024-03-17T01:24:09;4.90;99.90
14401;DHT22;7285;50.894;5.462;2024-03-17T01:26:34;4.80;99.90
14401;DHT22;7285;50.894;5.462;2024-03-17T01:29:02;4.90;99.90
14401;DHT22;7285;50.894;5.462;2024-03-17T01:31:28;4.90;99.90
14401;DHT22;7285;50.894;5.462;2024-03-17T01:33:56;4.90;99.90
14401;DHT22;7285;50.894;5.462;2024-03-17T01:36:23;4.80;99.90
14401;DHT22;7285;50.894;5.462;2024-03-17T01:38:51;4.80;99.90
14401;DHT22;7285;50.894;5.462;2024-03-17T01:41:17;4.80;99.90
14401;DHT22;7285;50.894;5.462;2024-03-17T01:43:44;4.90;99.90
14401;DHT22;7285;50.894;5.462;2024-03-17T01:46:12;4.90;99.90
14401;DHT22;7285;50.894;5.462;2024-03-17T01:48:40;4.90;99.90
14401;DHT22;7285;50.894;5.462;2024-03-17T01:51:09;4.90;99.90
14401;DHT22;7285;50.894;5.462;2024-03-17T01:53:37;5.00;99.90
14401;DHT22;7285;50.894;5.462;2024-03-17T01:56:06;5.10;99.90
14401;DHT22;7285;50.894;5.462;2024-03-17T01:58:34;5.20;99.90
14401;DHT22;7285;50.894;5.462;2024-03-17T02:01:01;5.20;99.90
14401;DHT22;7285;50.894;5.462;2024-03-17T02:03:30;5.20;99.90
14401;DHT22;7285;50.894;5.462;2024-03-17T02:05:56;5.30;99.90
14401;DHT22;7285;50.894;5.462;2024-03-17T02:08:24;5.40;99.90
14401;DHT22;7285;50.894;5.462;2024-03-17T02:10:52;5.50;99.90
14401;DHT22;7285;50.894;5.462;2024-03-17T02:13:29;5.50;99.90
14401;DHT22;7285;50.894;5.462;2024-03-17T02:15:55;5.60;99.90
14401;DHT22;7285;50.894;5.462;2024-03-17T02:18:41;5.60;99.90
14401;DHT22;7285;50.894;5.462;2024-03-17T02:21:07;5.60;99.90
14401;DHT22;7285;50.894;5.462;2024-03-17T02:23:36;5.60;99.90
14401;DHT22;7285;50.894;5.462;2024-03-17T02:26:02;5.70;99.90
14401;DHT22;7285;50.894;5.462;2024-03-17T02:28:29;5.80;99.90
14401;DHT22;7285;50.894;5.462;2024-03-17T02:30:55;5.80;99.90
14401;DHT22;7285;50.894;5.462;2024-03-17T02:33:22;5.80;99.90
14401;DHT22;7285;50.894;5.462;2024-03-17T02:36:06;5.80;99.90
14401;DHT22;7285;50.894;5.462;2024-03-17T02:38:36;5.90;99.90
14401;DHT22;7285;50.894;5.462;2024-03-17T02:41:21;6.00;99.90
14401;DHT22;7285;50.894;5.462;2024-03-17T02:43:48;6.00;99.90
14401;DHT22;7285;50.894;5.462;2024-03-17T02:46:17;6.00;99.90
14401;DHT22;7285;50.894;5.462;2024-03-17T02:48:45;6.10;99.90
14401;DHT22;7285;50.894;5.462;2024-03-17T02:51:14;6.10;99.90
14401;DHT22;7285;50.894;5.462;2024-03-17T02:53:44;6.10;99.90
14401;DHT22;7285;50.894;5.462;2024-03-17T02:56:12;6.10;99.90
14401;DHT22;7285;50.894;5.462;2024-03-17T02:58:41;6.20;99.90
14401;DHT22;7285;50.894;5.462;2024-03-17T03:01:08;6.20;99.90
14401;DHT22;7285;50.894;5.462;2024-03-17T03:03:36;6.20;99.90
14401;DHT22;7285;50.894;5.462;2024-03-17T03:06:03;6.30;99.90
14401;DHT22;7285;50.894;5.462;2024-03-17T03:08:35;6.30;99.90
14401;DHT22;7285;50.894;5.462;2024-03-17T03:11:10;6.30;99.90
14401;DHT22;7285;50.894;5.462;2024-03-17T03:13:38;6.30;99.90
14401;DHT22;7285;50.894;5.462;2024-03-17T03:16:06;6.30;99.90
14401;DHT22;7285;50.894;5.462;2024-03-17T03:18:33;6.40;99.90
14401;DHT22;7285;50.894;5.462;2024-03-17T03:21:06;6.40;99.90
14401;DHT22;7285;50.894;5.462;2024-03-17T03:23:34;6.30;99.90
14401;DHT22;7285;50.894;5.462;2024-03-17T03:26:02;6.30;99.90
14401;DHT22;7285;50.894;5.462;2024-03-17T03:28:32;6.30;99.90
14401;DHT22;7285;50.894;5.462;2024-03-17T03:30:59;6.20;99.90
14401;DHT22;7285;50.894;5.462;2024-03-17T03:33:27;6.20;99.90
14401;DHT22;7285;50.894;5.462;2024-03-17T03:35:54;6.20;99.90
14401;DHT22;7285;50.894;5.462;2024-03-17T03:38:22;6.10;99.90
14401;DHT22;7285;50.894;5.462;2024-03-17T03:40:50;6.10;99.90
14401;DHT22;7285;50.894;5.462;2024-03-17T03:43:18;6.10;99.90
14401;DHT22;7285;50.894;5.462;2024-03-17T03:45:46;6.10;99.90
14401;DHT22;7285;50.894;5.462;2024-03-17T03:48:13;6.00;99.90
14401;DHT22;7285;50.894;5.462;2024-03-17T03:50:43;6.00;99.90
14401;DHT22;7285;50.894;5.462;2024-03-17T03:53:10;5.90;99.90
14401;DHT22;7285;50.894;5.462;2024-03-17T03:55:37;5.90;99.90
14401;DHT22;7285;50.894;5.462;2024-03-17T03:58:05;5.80;99.90
14401;DHT22;7285;50.894;5.462;2024-03-17T04:00:32;5.70;99.90
14401;DHT22;7285;50.894;5.462;2024-03-17T04:03:07;5.70;99.90
14401;DHT22;7285;50.894;5.462;2024-03-17T04:05:34;5.60;99.90
14401;DHT22;7285;50.894;5.462;2024-03-17T04:08:01;5.60;99.90
14401;DHT22;7285;50.894;5.462;2024-03-17T04:10:28;5.60;99.90
14401;DHT22;7285;50.894;5.462;2024-03-17T04:12:55;5.50;99.90
14401;DHT22;7285;50.894;5.462;2024-03-17T04:15:22;5.50;99.90
14401;DHT22;7285;50.894;5.462;2024-03-17T04:17:49;5.40;99.90
14401;DHT22;7285;50.894;5.462;2024-03-17T04:20:19;5.40;99.90
14401;DHT22;7285;50.894;5.462;2024-03-17T04:22:46;5.40;99.90
14401;DHT22;7285;50.894;5.462;2024-03-17T04:25:14;5.30;99.90
14401;DHT22;7285;50.894;5.462;2024-03-17T04:27:43;5.40;99.90
14401;DHT22;7285;50.894;5.462;2024-03-17T04:30:12;5.40;99.90
14401;DHT22;7285;50.894;5.462;2024-03-17T04:32:39;5.40;99.90
14401;DHT22;7285;50.894;5.462;2024-03-17T04:35:07;5.40;99.90
14401;DHT22;7285;50.894;5.462;2024-03-17T04:37:35;5.50;99.90
14401;DHT22;7285;50.894;5.462;2024-03-17T04:40:06;5.50;99.90
14401;DHT22;7285;50.894;5.462;2024-03-17T04:42:35;5.60;99.90
14401;DHT22;7285;50.894;5.462;2024-03-17T04:45:05;5.60;99.90
14401;DHT22;7285;50.894;5.462;2024-03-17T04:47:32;5.60;99.90
14401;DHT22;7285;50.894;5.462;2024-03-17T04:49:59;5.70;99.90
14401;DHT22;7285;50.894;5.462;2024-03-17T04:52:26;5.70;99.90
14401;DHT22;7285;50.894;5.462;2024-03-17T04:54:54;5.70;99.90
14401;DHT22;7285;50.894;5.462;2024-03-17T04:57:21;5.80;99.90
14401;DHT22;7285;50.894;5.462;2024-03-17T04:59:48;5.80;99.90
14401;DHT22;7285;50.894;5.462;2024-03-17T05:02:15;5.90;99.90
14401;DHT22;7285;50.894;5.462;2024-03-17T05:04:42;5.90;99.90
14401;DHT22;7285;50.894;5.462;2024-03-17T05:07:12;5.90;99.90
14401;DHT22;7285;50.894;5.462;2024-03-17T05:09:39;5.90;99.90
14401;DHT22;7285;50.894;5.462;2024-03-17T05:12:08;5.90;99.90
14401;DHT22;7285;50.894;5.462;2024-03-17T05:14:35;5.80;99.90
14401;DHT22;7285;50.894;5.462;2024-03-17T05:17:02;5.80;99.90
14401;DHT22;7285;50.894;5.462;2024-03-17T05:19:30;5.70;99.90
14401;DHT22;7285;50.894;5.462;2024-03-17T05:21:57;5.80;99.90
14401;DHT22;7285;50.894;5.462;2024-03-17T05:24:30;5.70;99.90
14401;DHT22;7285;50.894;5.462;2024-03-17T05:26:57;5.60;99.90
14401;DHT22;7285;50.894;5.462;2024-03-17T05:29:25;5.60;99.90
14401;DHT22;7285;50.894;5.462;2024-03-17T05:31:52;5.60;99.90
14401;DHT22;7285;50.894;5.462;2024-03-17T05:34:19;5.60;99.90
14401;DHT22;7285;50.894;5.462;2024-03-17T05:36:46;5.60;99.90
14401;DHT22;7285;50.894;5.462;2024-03-17T05:39:13;5.50;99.90
14401;DHT22;7285;50.894;5.462;2024-03-17T05:41:40;5.50;99.90
14401;DHT22;7285;50.894;5.462;2024-03-17T05:44:09;5.50;99.90
14401;DHT22;7285;50.894;5.462;2024-03-17T05:46:37;5.50;99.90
14401;DHT22;7285;50.894;5.462;2024-03-17T05:49:04;5.50;99.90
14401;DHT22;7285;50.894;5.462;2024-03-17T05:51:32;5.50;99.90
14401;DHT22;7285;50.894;5.462;2024-03-17T05:53:59;5.50;99.90
14401;DHT22;7285;50.894;5.462;2024-03-17T05:56:26;5.50;99.90
14401;DHT22;7285;50.894;5.462;2024-03-17T05:58:53;5.50;99.90
14401;DHT22;7285;50.894;5.462;2024-03-17T06:01:26;5.50;99.90
14401;DHT22;7285;50.894;5.462;2024-03-17T06:03:54;5.50;99.90
14401;DHT22;7285;50.894;5.462;2024-03-17T06:06:34;5.50;99.90
14401;DHT22;7285;50.894;5.462;2024-03-17T06:09:01;5.60;99.90
14401;DHT22;7285;50.894;5.462;2024-03-17T06:11:30;5.60;99.90
14401;DHT22;7285;50.894;5.462;2024-03-17T06:14:00;5.60;99.90
14401;DHT22;7285;50.894;5.462;2024-03-17T06:16:31;5.70;99.90
14401;DHT22;7285;50.894;5.462;2024-03-17T06:19:00;5.80;99.90
14401;DHT22;7285;50.894;5.462;2024-03-17T06:21:28;5.90;99.90
14401;DHT22;7285;50.894;5.462;2024-03-17T06:23:55;6.00;99.90
14401;DHT22;7285;50.894;5.462;2024-03-17T06:26:23;6.10;99.90
14401;DHT22;7285;50.894;5.462;2024-03-17T06:30:45;6.20;99.90
14401;DHT22;7285;50.894;5.462;2024-03-17T06:33:13;6.40;99.90
14401;DHT22;7285;50.894;5.462;2024-03-17T06:35:40;6.60;99.90
14401;DHT22;7285;50.894;5.462;2024-03-17T06:38:07;6.80;99.90
14401;DHT22;7285;50.894;5.462;2024-03-17T06:40:35;6.90;99.90
14401;DHT22;7285;50.894;5.462;2024-03-17T06:43:02;7.10;99.90
14401;DHT22;7285;50.894;5.462;2024-03-17T06:45:29;7.10;99.90
14401;DHT22;7285;50.894;5.462;2024-03-17T06:47:57;7.10;99.90
14401;DHT22;7285;50.894;5.462;2024-03-17T06:50:24;7.20;99.90
14401;DHT22;7285;50.894;5.462;2024-03-17T06:52:52;7.30;99.90
14401;DHT22;7285;50.894;5.462;2024-03-17T06:55:18;7.30;99.90
14401;DHT22;7285;50.894;5.462;2024-03-17T06:57:47;7.30;99.90
14401;DHT22;7285;50.894;5.462;2024-03-17T07:00:14;7.40;99.90
14401;DHT22;7285;50.894;5.462;2024-03-17T07:02:43;7.50;99.90
14401;DHT22;7285;50.894;5.462;2024-03-17T07:05:14;7.50;99.90
14401;DHT22;7285;50.894;5.462;2024-03-17T07:07:41;7.50;99.90
14401;DHT22;7285;50.894;5.462;2024-03-17T07:10:09;7.60;99.90
14401;DHT22;7285;50.894;5.462;2024-03-17T07:12:37;7.60;99.90
14401;DHT22;7285;50.894;5.462;2024-03-17T07:15:04;7.70;99.90
14401;DHT22;7285;50.894;5.462;2024-03-17T07:17:32;7.80;99.90
14401;DHT22;7285;50.894;5.462;2024-03-17T07:19:59;7.90;99.90
14401;DHT22;7285;50.894;5.462;2024-03-17T07:22:28;7.90;99.90
14401;DHT22;7285;50.894;5.462;2024-03-17T07:24:55;8.00;99.90
14401;DHT22;7285;50.894;5.462;2024-03-17T07:27:26;8.10;99.90
14401;DHT22;7285;50.894;5.462;2024-03-17T07:29:52;8.20;99.90
14401;DHT22;7285;50.894;5.462;2024-03-17T07:32:19;8.30;99.90
14401;DHT22;7285;50.894;5.462;2024-03-17T07:34:46;8.50;99.90
14401;DHT22;7285;50.894;5.462;2024-03-17T07:37:14;8.70;99.90
14401;DHT22;7285;50.894;5.462;2024-03-17T07:39:43;8.90;99.90
14401;DHT22;7285;50.894;5.462;2024-03-17T07:42:10;8.90;99.90
14401;DHT22;7285;50.894;5.462;2024-03-17T07:44:38;9.00;99.90
14401;DHT22;7285;50.894;5.462;2024-03-17T07:47:06;9.10;99.90
14401;DHT22;7285;50.894;5.462;2024-03-17T07:49:33;9.30;99.90
14401;DHT22;7285;50.894;5.462;2024-03-17T07:52:00;9.40;99.90
14401;DHT22;7285;50.894;5.462;2024-03-17T07:54:27;9.70;99.90
14401;DHT22;7285;50.894;5.462;2024-03-17T07:56:56;9.70;99.90
14401;DHT22;7285;50.894;5.462;2024-03-17T07:59:23;9.60;99.90
14401;DHT22;7285;50.894;5.462;2024-03-17T08:01:50;9.80;99.90
14401;DHT22;7285;50.894;5.462;2024-03-17T08:04:16;9.90;99.90
14401;DHT22;7285;50.894;5.462;2024-03-17T08:06:43;10.00;99.90
14401;DHT22;7285;50.894;5.462;2024-03-17T08:09:11;10.20;99.90
14401;DHT22;7285;50.894;5.462;2024-03-17T08:11:37;10.30;99.90
14401;DHT22;7285;50.894;5.462;2024-03-17T08:14:10;10.40;99.90
14401;DHT22;7285;50.894;5.462;2024-03-17T08:16:37;10.40;99.90
14401;DHT22;7285;50.894;5.462;2024-03-17T08:19:05;10.60;99.90
14401;DHT22;7285;50.894;5.462;2024-03-17T08:21:32;10.70;99.90
14401;DHT22;7285;50.894;5.462;2024-03-17T08:23:58;10.70;99.90
14401;DHT22;7285;50.894;5.462;2024-03-17T08:26:25;10.80;99.90
14401;DHT22;7285;50.894;5.462;2024-03-17T08:28:52;10.90;99.90
14401;DHT22;7285;50.894;5.462;2024-03-17T08:31:20;10.90;99.90
14401;DHT22;7285;50.894;5.462;2024-03-17T08:33:47;10.90;99.90
14401;DHT22;7285;50.894;5.462;2024-03-17T08:36:18;11.00;99.90
14401;DHT22;7285;50.894;5.462;2024-03-17T08:38:45;11.20;99.90
14401;DHT22;7285;50.894;5.462;2024-03-17T08:41:13;11.10;99.90
14401;DHT22;7285;50.894;5.462;2024-03-17T08:43:40;11.10;99.90
14401;DHT22;7285;50.894;5.462;2024-03-17T08:46:09;11.10;99.90
14401;DHT22;7285;50.894;5.462;2024-03-17T08:48:38;11.10;99.90
14401;DHT22;7285;50.894;5.462;2024-03-17T08:51:06;11.10;99.90
14401;DHT22;7285;50.894;5.462;2024-03-17T08:53:33;11.20;99.90
14401;DHT22;7285;50.894;5.462;2024-03-17T08:56:03;11.40;99.90
14401;DHT22;7285;50.894;5.462;2024-03-17T08:58:32;11.60;99.90
14401;DHT22;7285;50.894;5.462;2024-03-17T09:00:58;11.80;99.90
14401;DHT22;7285;50.894;5.462;2024-03-17T09:03:29;12.10;99.90
14401;DHT22;7285;50.894;5.462;2024-03-17T09:05:57;12.00;99.90
14401;DHT22;7285;50.894;5.462;2024-03-17T09:08:25;12.20;99.90
14401;DHT22;7285;50.894;5.462;2024-03-17T09:10:53;12.30;99.90
14401;DHT22;7285;50.894;5.462;2024-03-17T09:13:22;12.60;99.90
14401;DHT22;7285;50.894;5.462;2024-03-17T09:15:51;12.80;99.90
14401;DHT22;7285;50.894;5.462;2024-03-17T09:18:18;12.70;99.90
14401;DHT22;7285;50.894;5.462;2024-03-17T09:20:44;12.80;99.90
14401;DHT22;7285;50.894;5.462;2024-03-17T09:23:13;12.90;99.90
14401;DHT22;7285;50.894;5.462;2024-03-17T09:25:40;13.00;99.90
14401;DHT22;7285;50.894;5.462;2024-03-17T09:28:07;13.20;99.90
14401;DHT22;7285;50.894;5.462;2024-03-17T09:30:34;13.20;99.90
14401;DHT22;7285;50.894;5.462;2024-03-17T09:33:01;13.10;99.90
14401;DHT22;7285;50.894;5.462;2024-03-17T09:35:30;13.20;99.90
14401;DHT22;7285;50.894;5.462;2024-03-17T09:37:57;13.40;99.90
14401;DHT22;7285;50.894;5.462;2024-03-17T09:40:25;13.40;99.90
14401;DHT22;7285;50.894;5.462;2024-03-17T09:42:52;14.00;99.90
14401;DHT22;7285;50.894;5.462;2024-03-17T09:45:19;14.40;99.90
14401;DHT22;7285;50.894;5.462;2024-03-17T09:47:47;14.40;99.90
14401;DHT22;7285;50.894;5.462;2024-03-17T09:50:14;14.50;99.90
14401;DHT22;7285;50.894;5.462;2024-03-17T09:52:44;14.50;99.90
14401;DHT22;7285;50.894;5.462;2024-03-17T09:55:15;14.80;99.90
14401;DHT22;7285;50.894;5.462;2024-03-17T09:57:44;15.10;99.90
14401;DHT22;7285;50.894;5.462;2024-03-17T10:00:14;15.50;99.90
14401;DHT22;7285;50.894;5.462;2024-03-17T10:02:45;15.70;99.90
14401;DHT22;7285;50.894;5.462;2024-03-17T10:05:19;16.20;99.90
14401;DHT22;7285;50.894;5.462;2024-03-17T10:07:47;15.90;99.90
14401;DHT22;7285;50.894;5.462;2024-03-17T10:10:14;15.80;99.90
14401;DHT22;7285;50.894;5.462;2024-03-17T10:12:43;15.40;99.90
14401;DHT22;7285;50.894;5.462;2024-03-17T10:15:11;15.60;99.90
14401;DHT22;7285;50.894;5.462;2024-03-17T10:17:38;15.80;99.90
14401;DHT22;7285;50.894;5.462;2024-03-17T10:20:12;15.60;99.90
14401;DHT22;7285;50.894;5.462;2024-03-17T10:22:56;15.30;99.90
14401;DHT22;7285;50.894;5.462;2024-03-17T10:25:24;15.10;99.90
14401;DHT22;7285;50.894;5.462;2024-03-17T10:27:52;15.10;99.90
14401;DHT22;7285;50.894;5.462;2024-03-17T10:30:20;15.20;99.90
14401;DHT22;7285;50.894;5.462;2024-03-17T10:32:52;15.00;99.90
14401;DHT22;7285;50.894;5.462;2024-03-17T10:35:30;15.00;99.90
14401;DHT22;7285;50.894;5.462;2024-03-17T10:37:58;14.90;99.90
14401;DHT22;7285;50.894;5.462;2024-03-17T10:40:27;14.70;99.90
14401;DHT22;7285;50.894;5.462;2024-03-17T10:42:57;14.80;99.90
14401;DHT22;7285;50.894;5.462;2024-03-17T10:45:25;14.70;99.90
14401;DHT22;7285;50.894;5.462;2024-03-17T10:47:56;14.70;99.90
14401;DHT22;7285;50.894;5.462;2024-03-17T10:50:30;14.80;99.90
14401;DHT22;7285;50.894;5.462;2024-03-17T10:53:01;14.80;99.90
14401;DHT22;7285;50.894;5.462;2024-03-17T10:55:32;14.70;99.90
14401;DHT22;7285;50.894;5.462;2024-03-17T10:58:16;14.70;99.90
14401;DHT22;7285;50.894;5.462;2024-03-17T11:00:47;14.50;99.90
14401;DHT22;7285;50.894;5.462;2024-03-17T11:03:14;14.40;99.90
14401;DHT22;7285;50.894;5.462;2024-03-17T11:05:42;14.50;99.90
14401;DHT22;7285;50.894;5.462;2024-03-17T11:08:15;14.50;99.90
14401;DHT22;7285;50.894;5.462;2024-03-17T11:10:49;14.50;99.90
14401;DHT22;7285;50.894;5.462;2024-03-17T11:13:26;14.50;99.90
14401;DHT22;7285;50.894;5.462;2024-03-17T11:15:54;14.40;99.90
14401;DHT22;7285;50.894;5.462;2024-03-17T11:18:41;14.30;99.90
14401;DHT22;7285;50.894;5.462;2024-03-17T11:21:21;14.20;99.90
14401;DHT22;7285;50.894;5.462;2024-03-17T11:24:01;14.20;99.90
14401;DHT22;7285;50.894;5.462;2024-03-17T11:26:33;14.20;99.90
14401;DHT22;7285;50.894;5.462;2024-03-17T11:29:02;14.10;99.90
14401;DHT22;7285;50.894;5.462;2024-03-17T11:31:40;14.20;99.90
14401;DHT22;7285;50.894;5.462;2024-03-17T11:34:29;14.10;99.90
14401;DHT22;7285;50.894;5.462;2024-03-17T11:36:56;14.20;99.90
14401;DHT22;7285;50.894;5.462;2024-03-17T11:39:49;14.20;99.90
14401;DHT22;7285;50.894;5.462;2024-03-17T11:42:16;14.20;99.90
14401;DHT22;7285;50.894;5.462;2024-03-17T11:44:55;14.20;99.90
14401;DHT22;7285;50.894;5.462;2024-03-17T11:47:21;14.30;99.90
14401;DHT22;7285;50.894;5.462;2024-03-17T11:49:49;14.40;99.90
14401;DHT22;7285;50.894;5.462;2024-03-17T11:52:16;14.40;99.90
14401;DHT22;7285;50.894;5.462;2024-03-17T11:54:44;14.50;99.90
14401;DHT22;7285;50.894;5.462;2024-03-17T11:57:12;14.60;99.90
14401;DHT22;7285;50.894;5.462;2024-03-17T11:59:39;14.70;99.90
14401;DHT22;7285;50.894;5.462;2024-03-17T12:02:17;14.70;99.90
14401;DHT22;7285;50.894;5.462;2024-03-17T12:04:44;14.50;99.90
14401;DHT22;7285;50.894;5.462;2024-03-17T12:07:13;14.50;99.90
14401;DHT22;7285;50.894;5.462;2024-03-17T12:09:41;14.50;99.90
14401;DHT22;7285;50.894;5.462;2024-03-17T12:12:09;14.60;99.90
14401;DHT22;7285;50.894;5.462;2024-03-17T12:14:35;14.60;99.90
14401;DHT22;7285;50.894;5.462;2024-03-17T12:17:04;14.70;99.90
14401;DHT22;7285;50.894;5.462;2024-03-17T12:19:31;14.90;99.90
14401;DHT22;7285;50.894;5.462;2024-03-17T12:21:59;15.10;99.90
14401;DHT22;7285;50.894;5.462;2024-03-17T12:24:27;15.20;99.90
14401;DHT22;7285;50.894;5.462;2024-03-17T12:26:55;15.40;99.90
14401;DHT22;7285;50.894;5.462;2024-03-17T12:29:27;15.30;99.90
14401;DHT22;7285;50.894;5.462;2024-03-17T12:31:56;15.30;99.90
14401;DHT22;7285;50.894;5.462;2024-03-17T12:34:25;15.40;99.90
14401;DHT22;7285;50.894;5.462;2024-03-17T12:36:55;15.50;99.90
14401;DHT22;7285;50.894;5.462;2024-03-17T12:39:22;15.70;99.90
14401;DHT22;7285;50.894;5.462;2024-03-17T12:42:06;15.90;99.90
14401;DHT22;7285;50.894;5.462;2024-03-17T12:44:34;16.10;99.90
14401;DHT22;7285;50.894;5.462;2024-03-17T12:47:04;15.90;99.90
14401;DHT22;7285;50.894;5.462;2024-03-17T12:49:31;16.00;99.90
14401;DHT22;7285;50.894;5.462;2024-03-17T12:52:00;16.00;99.90
14401;DHT22;7285;50.894;5.462;2024-03-17T12:54:27;15.90;99.90
14401;DHT22;7285;50.894;5.462;2024-03-17T12:57:04;16.20;99.90
14401;DHT22;7285;50.894;5.462;2024-03-17T12:59:48;16.50;99.90
14401;DHT22;7285;50.894;5.462;2024-03-17T13:02:41;16.50;99.90
14401;DHT22;7285;50.894;5.462;2024-03-17T13:05:13;16.80;99.90
14401;DHT22;7285;50.894;5.462;2024-03-17T13:07:45;16.80;99.90
14401;DHT22;7285;50.894;5.462;2024-03-17T13:10:14;16.70;99.90
14401;DHT22;7285;50.894;5.462;2024-03-17T13:12:41;16.50;99.90
14401;DHT22;7285;50.894;5.462;2024-03-17T13:15:10;16.60;99.90
14401;DHT22;7285;50.894;5.462;2024-03-17T13:17:38;16.80;99.90
14401;DHT22;7285;50.894;5.462;2024-03-17T13:20:06;16.90;99.90
14401;DHT22;7285;50.894;5.462;2024-03-17T13:22:37;17.10;99.90
14401;DHT22;7285;50.894;5.462;2024-03-17T13:25:08;17.40;99.90
14401;DHT22;7285;50.894;5.462;2024-03-17T13:27:39;17.50;99.90
14401;DHT22;7285;50.894;5.462;2024-03-17T13:30:06;17.50;99.90
14401;DHT22;7285;50.894;5.462;2024-03-17T13:32:34;17.60;99.90
14401;DHT22;7285;50.894;5.462;2024-03-17T13:35:01;18.20;99.90
14401;DHT22;7285;50.894;5.462;2024-03-17T13:37:29;18.10;99.90
14401;DHT22;7285;50.894;5.462;2024-03-17T13:39:55;17.60;99.90
14401;DHT22;7285;50.894;5.462;2024-03-17T13:42:24;17.30;99.90
14401;DHT22;7285;50.894;5.462;2024-03-17T13:44:50;17.10;99.90
14401;DHT22;7285;50.894;5.462;2024-03-17T13:47:17;17.20;99.90
14401;DHT22;7285;50.894;5.462;2024-03-17T13:49:44;16.90;99.90
14401;DHT22;7285;50.894;5.462;2024-03-17T13:52:12;17.10;99.90
14401;DHT22;7285;50.894;5.462;2024-03-17T13:54:39;17.00;99.90
14401;DHT22;7285;50.894;5.462;2024-03-17T13:57:06;17.10;99.90
14401;DHT22;7285;50.894;5.462;2024-03-17T13:59:35;17.30;99.90
14401;DHT22;7285;50.894;5.462;2024-03-17T14:02:02;17.10;99.90
14401;DHT22;7285;50.894;5.462;2024-03-17T14:04:30;17.00;99.90
14401;DHT22;7285;50.894;5.462;2024-03-17T14:06:57;16.60;99.90
14401;DHT22;7285;50.894;5.462;2024-03-17T14:09:23;16.50;99.90
14401;DHT22;7285;50.894;5.462;2024-03-17T14:11:50;16.30;99.90
14401;DHT22;7285;50.894;5.462;2024-03-17T14:14:18;16.10;99.90
14401;DHT22;7285;50.894;5.462;2024-03-17T14:16:46;15.90;99.90
14401;DHT22;7285;50.894;5.462;2024-03-17T14:19:12;16.00;99.90
14401;DHT22;7285;50.894;5.462;2024-03-17T14:21:39;16.00;99.90
14401;DHT22;7285;50.894;5.462;2024-03-17T14:24:06;16.00;99.90
14401;DHT22;7285;50.894;5.462;2024-03-17T14:26:34;16.10;99.90
14401;DHT22;7285;50.894;5.462;2024-03-17T14:29:01;16.20;99.90
14401;DHT22;7285;50.894;5.462;2024-03-17T14:31:31;16.10;99.90
14401;DHT22;7285;50.894;5.462;2024-03-17T14:34:02;16.00;99.90
14401;DHT22;7285;50.894;5.462;2024-03-17T14:36:30;16.00;99.90
14401;DHT22;7285;50.894;5.462;2024-03-17T14:38:58;16.00;99.90
14401;DHT22;7285;50.894;5.462;2024-03-17T14:41:27;16.00;99.90
14401;DHT22;7285;50.894;5.462;2024-03-17T14:43:55;16.00;99.90
14401;DHT22;7285;50.894;5.462;2024-03-17T14:46:22;16.00;99.90
14401;DHT22;7285;50.894;5.462;2024-03-17T14:48:49;16.00;99.90
14401;DHT22;7285;50.894;5.462;2024-03-17T14:51:18;16.00;99.90
14401;DHT22;7285;50.894;5.462;2024-03-17T14:53:46;16.00;99.90
14401;DHT22;7285;50.894;5.462;2024-03-17T14:56:15;16.00;99.90
14401;DHT22;7285;50.894;5.462;2024-03-17T14:58:43;15.80;99.90
14401;DHT22;7285;50.894;5.462;2024-03-17T15:01:09;15.80;99.90
14401;DHT22;7285;50.894;5.462;2024-03-17T15:03:37;15.90;99.90
14401;DHT22;7285;50.894;5.462;2024-03-17T15:06:09;15.90;99.90
14401;DHT22;7285;50.894;5.462;2024-03-17T15:08:37;15.80;99.90
14401;DHT22;7285;50.894;5.462;2024-03-17T15:11:04;15.80;99.90
14401;DHT22;7285;50.894;5.462;2024-03-17T15:13:33;15.70;99.90
14401;DHT22;7285;50.894;5.462;2024-03-17T15:16:00;15.70;99.90
14401;DHT22;7285;50.894;5.462;2024-03-17T15:18:30;15.60;99.90
14401;DHT22;7285;50.894;5.462;2024-03-17T15:20:56;15.50;99.90
14401;DHT22;7285;50.894;5.462;2024-03-17T15:23:26;15.50;99.90
14401;DHT22;7285;50.894;5.462;2024-03-17T15:26:00;15.30;99.90
14401;DHT22;7285;50.894;5.462;2024-03-17T15:28:32;15.30;99.90
14401;DHT22;7285;50.894;5.462;2024-03-17T15:30:59;15.30;99.90
14401;DHT22;7285;50.894;5.462;2024-03-17T15:33:27;15.20;99.90
14401;DHT22;7285;50.894;5.462;2024-03-17T15:35:54;15.10;99.90
14401;DHT22;7285;50.894;5.462;2024-03-17T15:38:21;15.00;99.90
14401;DHT22;7285;50.894;5.462;2024-03-17T15:40:48;15.00;99.90
14401;DHT22;7285;50.894;5.462;2024-03-17T15:43:16;15.00;99.90
14401;DHT22;7285;50.894;5.462;2024-03-17T15:45:44;15.00;99.90
14401;DHT22;7285;50.894;5.462;2024-03-17T15:48:10;15.00;99.90
14401;DHT22;7285;50.894;5.462;2024-03-17T15:50:37;15.00;99.90
14401;DHT22;7285;50.894;5.462;2024-03-17T15:53:05;15.00;99.90
14401;DHT22;7285;50.894;5.462;2024-03-17T15:55:32;15.00;99.90
14401;DHT22;7285;50.894;5.462;2024-03-17T15:57:59;15.00;99.90
14401;DHT22;7285;50.894;5.462;2024-03-17T16:00:27;14.90;99.90
14401;DHT22;7285;50.894;5.462;2024-03-17T16:02:54;14.80;99.90
14401;DHT22;7285;50.894;5.462;2024-03-17T16:05:22;14.80;99.90